Tiempo atmosférico en la estación meteorológica de Villafáfila, Zamora (690 m.)



Fecha
DESCASC
Temp. máxima en grados centígrados (hora)
DESCASC
Temp. mínima en grados centígrados (hora)
DESCASC
Temp. media en grados centígrados
DESCASC
Racha de viento máxima en m/sg (hora)
DESCASC
Velocidad máxima media en intervalos de 10 minutos(hora)
DESCASC
Precipitaciones diarias en mm
DESCASC
Precipitaciones de 00:00 a 06:00 en mm
DESCASC
Precipitaciones de 06:00 a 12:00 en mm
DESCASC
Precipitaciones de 12:00 a 18:00 en mm
DESCASC
Precipitaciones de 18:00 a 24:00 en mm
DESCASC
22-04-2019 19 (16:30) 2.4 (07:00) 10.7 12.22 (20:10) 7.78 (20:10) 1 0 0 0 1
21-04-2019 19.8 (16:30) 5.6 (08:10) 12.7 13.89 (18:20) 9.17 (18:50) 0 0 0 0 0
20-04-2019 22.2 (16:00) 7.7 (07:30) 15 19.72 (14:50) 11.39 (16:20) 0 0 0 0 0
19-04-2019 16.4 (15:10) 8.4 (06:00) 12.4 22.5 (17:50) 11.39 (18:10) 4.6 4.6 0 0 0
18-04-2019 14.3 (15:50) 5.5 (00:00) 9.9 8.61 (02:00) 5.83 (16:20) 1.2 0.6 0 0 0.6
17-04-2019 20.1 (16:30) 4.9 (00:00) 12.5 11.67 (20:40) 7.5 (21:00) 0.4 0 0 0 0.4
16-04-2019 19.9 (17:40) -0.9 (-00:0) 9.5 7.22 (16:50) 4.44 (16:50) 0 0 0 0 0
15-04-2019 19.7 (14:10) 6.7 (00:00) 13.2 19.72 (15:20) 13.89 (15:50) 0 0 0 0 0
14-04-2019 20.9 (16:30) 7.7 (00:00) 14.3 8.61 (16:50) 5 (18:30) 0 0 0 0 0
13-04-2019 20.7 (18:20) 1.3 (00:00) 11 10 (19:50) 5.83 (19:30) 0 0 0 0 0
12-04-2019 16.8 (18:10) -1.3 (07:40) 7.7 5.83 (16:50) 3.61 (00:30) 0 0 0 0 0
11-04-2019 16.3 (17:40) -1.3 (-00:0) 7.5 6.94 (17:40) 3.89 (18:10) 0 0 0 0 0
10-04-2019 14.7 (18:10) 2.2 (00:00) 8.4 11.11 (13:50) 7.78 (00:10) 0.8 0 0 0.2 0.6
09-04-2019 11.7 (16:40) 3.9 (00:00) 7.8 13.89 (18:20) 9.17 (15:20) 3.2 0 3 0.2 0
08-04-2019 14 (16:30) 3.6 (00:00) 8.8 11.11 (19:20) 7.5 (11:50) 0.8 0.6 0 0 0.2
07-04-2019 11.4 (14:50) -1.9 (-00:0) 4.7 11.11 (16:40) 7.22 (16:50) 3.4 0 0 1 2.4
06-04-2019 10.1 (18:30) 0.5 (00:00) 5.3 18.61 (19:50) 13.06 (16:30) 0 0 0 0 0
05-04-2019 10.7 (16:50) 1.9 (00:00) 6.3 13.33 (16:50) 8.33 (18:30) 1.6 1.6 0 0 0
04-04-2019 11.1 (15:50) -3.8 (-00:0) 3.7 12.78 (17:00) 8.06 (16:30) 1.8 0 0 0 1.8
03-04-2019 13.2 (15:40) 1.3 (04:00) 7.2 15.28 (15:50) 10 (12:20) 0 0 0 0 0
02-04-2019 19.2 (17:00) 2 (00:00) 10.6 10.28 (21:10) 7.22 (21:20) 0 0 0 0 0
01-04-2019 18.7 (17:50) 1.4 (00:00) 10.1 7.22 (20:50) 5.28 (20:50) 0 0 0 0 0
31-03-2019 20.4 (15:20) 0.3 (00:00) 10.3 14.44 (18:30) 7.5 (18:30) 0 0 0 0 0
30-03-2019 19.7 (16:40) 2.3 (00:00) 11 5.83 (23:50) 3.89 (23:20) 0 0 0 0 0
29-03-2019 19.1 (16:50) -1 (-00:0) 9.1 5.83 (06:50) 3.89 (05:30) 0 0 0 0 0
28-03-2019 18.8 (16:20) 2.1 (00:00) 10.4 12.5 (10:30) 9.17 (10:30) 0 0 0 0 0
27-03-2019 19.5 (16:00) -0.7 (-00:0) 9.4 15.56 (15:50) 9.72 (17:20) 0 0 0 0 0
26-03-2019 18 (16:20) 1.6 (00:00) 9.8 18.89 (13:20) 13.61 (14:20) 0 0 0 0 0
25-03-2019 17 (15:00) 1.8 (00:00) 9.4 15.28 (18:50) 9.72 (18:30) 0 0 0 0 0

Gráficas

Temp. máximas Temp. mínimas Temp. medias Precipitaciones Rachas de viento máximas Velocidades máximas media en intervalos de 10 minutos

Datos horarios

Fecha y hora oficial Temperatura (ºC) Velocidad del viento (km/h) Dirección del viento Racha (km/h) Dirección de racha Precipitación (mm) Presión (hPa) Tendencia (hPa) Humedad (%)
2019-04-23 23:00:00 4.4 14 Sudoeste 25 Sudoeste 0 -- -- 86
2019-04-23 22:00:00 5.7 19 Sudoeste 44 Sudoeste 0 -- -- 78
2019-04-23 21:00:00 6.2 28 Sudoeste 42 Sudoeste 0 -- -- 77
2019-04-23 20:00:00 7.7 23 Sudoeste 40 Sudoeste 0 -- -- 71
2019-04-23 19:00:00 8.5 6 Norte 25 Sudoeste 0.4 -- -- 76
2019-04-23 18:00:00 9 20 Sudoeste 32 Sur 0 -- -- 67
2019-04-23 17:00:00 7.7 28 Sudoeste 49 Sudoeste 0 -- -- 75
2019-04-23 16:00:00 9.3 25 Sudoeste 45 Oeste 0 -- -- 63
2019-04-23 15:00:00 11.7 23 Sudoeste 49 Sudoeste 0 -- -- 53
2019-04-23 14:00:00 10.7 24 Sudoeste 37 Sudoeste 0 -- -- 62
2019-04-23 13:00:00 9.4 19 Sudoeste 31 Sur 0 -- -- 62
2019-04-23 12:00:00 8.5 15 Sudoeste 30 Sudoeste 0 -- -- 69
2019-04-23 11:00:00 7.6 17 Sudoeste 36 Sudoeste 0 -- -- 73
2019-04-23 10:00:00 6.8 20 Sudoeste 35 Sudoeste 0 -- -- 82
2019-04-23 09:00:00 6.3 18 Sudoeste 29 Sudoeste 0 -- -- 86
2019-04-23 08:00:00 6 11 Sur 20 Sudoeste 0 -- -- 89
2019-04-23 07:00:00 6.1 12 Sur 19 Sur 0.2 -- -- 89
2019-04-23 06:00:00 6.2 10 Sudoeste 23 Sudoeste 1 -- -- 90
2019-04-23 05:00:00 6.9 13 Sudoeste 32 Oeste 0 -- -- 84
2019-04-23 04:00:00 8.2 30 Oeste 45 Sudoeste 0 -- -- 80
2019-04-23 03:00:00 9.7 17 Sur 27 Sur 0.2 -- -- 89
2019-04-23 02:00:00 9.8 10 Sudeste 13 Sudeste 0.4 -- -- 91
2019-04-23 01:00:00 10.2 4 Sur 17 Sudoeste 1.2 -- -- 89
2019-04-23 00:00:00 10.8 10 Sudoeste 21 Sudoeste 1 -- -- 86
2019-04-22 23:00:00 12.6 10 Sur 22 Sudoeste 0 -- -- 74
2019-04-22 22:00:00 12.7 14 Sudoeste 23 Sudoeste 0 -- -- 70
2019-04-22 21:00:00 13.5 9 Sudoeste 44 Sudoeste 0 -- -- 65
2019-04-22 20:00:00 16.8 14 Sudoeste 25 Sudoeste 0 -- -- 47
2019-04-22 19:00:00 17.6 22 Sudoeste 35 Sudoeste 0 -- -- 41
2019-04-22 18:00:00 18.1 19 Sudoeste 36 Sudoeste 0 -- -- 44
2019-04-22 17:00:00 17.5 18 Sudoeste 32 Sudoeste 0 -- -- 42
2019-04-22 16:00:00 18 12 Sudoeste 27 Sudoeste 0 -- -- 40
2019-04-22 15:00:00 17.3 14 Sudoeste 37 Sudoeste 0 -- -- 46
2019-04-22 14:00:00 16.5 15 Sur 29 Sudoeste 0 -- -- 49
2019-04-22 13:00:00 15.3 9 Sudoeste 21 Sudoeste 0 -- -- 55
2019-04-22 12:00:00 13.4 8 Sudoeste 20 Sudoeste 0 -- -- 58
2019-04-22 11:00:00 11.4 5 Sudoeste 11 Sur 0 -- -- 72
2019-04-22 10:00:00 9.1 3 Noroeste 9 Norte 0 -- -- 83
2019-04-22 09:00:00 5.5 5 Noroeste 9 Norte 0 -- -- 94
2019-04-22 08:00:00 3.2 6 Noroeste 10 Noroeste 0 -- -- 95
2019-04-22 07:00:00 2.4 8 Noroeste 11 Norte 0 -- -- 91
2019-04-22 06:00:00 3 8 Noroeste 11 Oeste 0 -- -- 90
2019-04-22 05:00:00 3.9 7 Norte 10 Norte 0 -- -- 89
2019-04-22 04:00:00 4.7 5 Norte 6 Norte 0 -- -- 88
2019-04-22 03:00:00 5.5 5 Nordeste 9 Nordeste 0 -- -- 85
2019-04-22 02:00:00 6.7 6 Nordeste 9 Nordeste 0 -- -- 85
2019-04-22 01:00:00 8 5 Este 12 Nordeste 0 -- -- 80
2019-04-22 00:00:00 8.7 8 Nordeste 17 Este 0 -- -- 79
2019-04-21 23:00:00 11.2 14 Este 27 Este 0 -- -- 70
2019-04-21 22:00:00 12.2 24 Este 32 Este 0 -- -- 64
2019-04-21 21:00:00 13.1 22 Este 40 Este 0 -- -- 60
2019-04-21 20:00:00 15 26 Este 45 Este 0 -- -- 53
2019-04-21 19:00:00 17 31 Este 50 Este 0 -- -- 47
2019-04-21 18:00:00 18.5 31 Nordeste 49 Nordeste 0 -- -- 43
2019-04-21 17:00:00 19 30 Nordeste 45 Nordeste 0 -- -- 38
2019-04-21 16:00:00 19.1 30 Nordeste 43 Nordeste 0 -- -- 39
2019-04-21 15:00:00 18.1 24 Nordeste 45 Este 0 -- -- 42
2019-04-21 14:00:00 18.5 24 Nordeste 43 Este 0 -- -- 42
2019-04-21 13:00:00 17.2 25 Nordeste 37 Nordeste 0 -- -- 46
2019-04-21 12:00:00 15.5 22 Nordeste 32 Nordeste 0 -- -- 51
2019-04-21 11:00:00 13.7 18 Este 35 Este 0 -- -- 62
2019-04-21 10:00:00 11.7 11 Nordeste 18 Nordeste 0 -- -- 73
2019-04-21 09:00:00 8.1 11 Norte 17 Norte 0 -- -- 84
2019-04-21 08:00:00 5.8 8 Nordeste 19 Este 0 -- -- 86
2019-04-21 07:00:00 6.6 13 Nordeste 30 Nordeste 0 -- -- 83
2019-04-21 06:00:00 7.4 17 Nordeste 27 Nordeste 0 -- -- 82
2019-04-21 05:00:00 8.3 19 Nordeste 28 Nordeste 0 -- -- 77
2019-04-21 04:00:00 6.7 10 Noroeste 15 Noroeste 0 -- -- 79
2019-04-21 03:00:00 7.6 11 Noroeste 20 Nordeste 0 -- -- 77
2019-04-21 02:00:00 6.9 4 Noroeste 13 Norte 0 -- -- 77
2019-04-21 01:00:00 7.1 9 Norte 21 Nordeste 0 -- -- 72
2019-04-21 00:00:00 9.9 12 Nordeste 24 Nordeste 0 -- -- 60
2019-04-20 23:00:00 12.2 17 Nordeste 33 Nordeste 0 -- -- 51
2019-04-20 22:00:00 14.2 23 Nordeste 35 Nordeste 0 -- -- 43
2019-04-20 21:00:00 16.5 26 Nordeste 44 Nordeste 0 -- -- 39
2019-04-20 20:00:00 19.3 33 Nordeste 52 Nordeste 0 -- -- 36
2019-04-20 19:00:00 20.9 35 Nordeste 59 Nordeste 0 -- -- 33
2019-04-20 18:00:00 21.8 35 Nordeste 56 Nordeste 0 -- -- 31
2019-04-20 17:00:00 22 38 Nordeste 54 Nordeste 0 -- -- 32
2019-04-20 16:00:00 22.2 36 Nordeste 55 Nordeste 0 -- -- 32
2019-04-20 15:00:00 21.8 35 Nordeste 71 Nordeste 0 -- -- 34
2019-04-20 14:00:00 21 28 Nordeste 49 Nordeste 0 -- -- 43
2019-04-20 13:00:00 19.3 33 Nordeste 53 Nordeste 0 -- -- 50
2019-04-20 12:00:00 18 34 Nordeste 59 Nordeste 0 -- -- 55
2019-04-20 11:00:00 16.9 31 Nordeste 46 Nordeste 0 -- -- 56
2019-04-20 10:00:00 14.7 22 Nordeste 33 Nordeste 0 -- -- 61
2019-04-20 09:00:00 9.7 12 Norte 16 Norte 0 -- -- 81
2019-04-20 08:00:00 8 13 Norte 26 Norte 0 -- -- 83
2019-04-20 07:00:00 8.3 12 Norte 19 Nordeste 0 -- -- 83
2019-04-20 06:00:00 9.4 12 Nordeste 35 Nordeste 0 -- -- 80
2019-04-20 05:00:00 11.2 26 Nordeste 38 Nordeste 0 -- -- 75
2019-04-20 04:00:00 11.6 25 Nordeste 35 Nordeste 0 -- -- 75
2019-04-20 03:00:00 10.8 24 Norte 37 Norte 0 -- -- 80
2019-04-20 02:00:00 10.4 25 Norte 32 Norte 0 -- -- 82
2019-04-20 01:00:00 11.1 18 Nordeste 31 Nordeste 0 -- -- 78
2019-04-20 00:00:00 11.6 18 Nordeste 37 Nordeste 0 -- -- 76
2019-04-19 23:00:00 12.9 22 Nordeste 35 Nordeste 0 -- -- 69
2019-04-19 22:00:00 13 21 Nordeste 36 Nordeste 0 -- -- 68
2019-04-19 21:00:00 13.4 27 Nordeste 38 Nordeste 0 -- -- 70
2019-04-19 20:00:00 14.2 26 Nordeste 41 Nordeste 0 -- -- 69
2019-04-19 19:00:00 13.7 16 Nordeste 58 Este 0 -- -- 70
2019-04-19 18:00:00 13.8 37 Este 81 Nordeste 0 -- -- 69
2019-04-19 17:00:00 13.8 38 Nordeste 51 Nordeste 0 -- -- 71
2019-04-19 16:00:00 14.9 35 Nordeste 53 Nordeste 0 -- -- 66
2019-04-19 15:00:00 16.1 31 Nordeste 45 Nordeste 0 -- -- 62
2019-04-19 14:00:00 14.6 27 Nordeste 42 Nordeste 0 -- -- 69
2019-04-19 13:00:00 14.8 28 Nordeste 49 Nordeste 0 -- -- 72
2019-04-19 12:00:00 14.2 24 Nordeste 34 Este 0 -- -- 68
2019-04-19 11:00:00 11.8 24 Nordeste 35 Nordeste 0 -- -- 82
2019-04-19 10:00:00 9.6 21 Este 28 Nordeste 0 -- -- 89
2019-04-19 09:00:00 8.9 18 Nordeste 26 Este 0 -- -- 90
2019-04-19 08:00:00 8.6 20 Nordeste 30 Este 0 -- -- 92
2019-04-19 07:00:00 8.6 17 Este 26 Nordeste 0 -- -- 93
2019-04-19 06:00:00 8.4 17 Este 36 Este 0 -- -- 93
2019-04-19 05:00:00 8.9 18 Este 35 Nordeste 0.2 -- -- 93
2019-04-19 04:00:00 8.8 17 Norte 22 Norte 1 -- -- 94
2019-04-19 03:00:00 8.9 13 Nordeste 29 Nordeste 1.4 -- -- 94
2019-04-19 02:00:00 9.2 18 Nordeste 27 Norte 1.2 -- -- 93
2019-04-19 01:00:00 9.3 13 Norte 17 Norte 0.8 -- -- 92
2019-04-19 00:00:00 9.4 13 Norte 19 Norte 0.2 -- -- 91
2019-04-18 23:00:00 9.6 11 Norte 16 Norte 0 -- -- 89
2019-04-18 22:00:00 9.6 10 Norte 20 Norte 0 -- -- 90
2019-04-18 21:00:00 10 10 Norte 17 Nordeste 0 -- -- 87
2019-04-18 20:00:00 10.5 13 Nordeste 22 Nordeste 0 -- -- 83
2019-04-18 19:00:00 10.7 18 Nordeste 27 Nordeste 0.4 -- -- 84
2019-04-18 18:00:00 12.8 19 Nordeste 27 Nordeste 0 -- -- 73
2019-04-18 17:00:00 12.3 18 Este 28 Este 0 -- -- 79
2019-04-18 16:00:00 14.2 20 Este 30 Este 0 -- -- 68
2019-04-18 15:00:00 14 9 Nordeste 15 Nordeste 0 -- -- 62
2019-04-18 14:00:00 13.5 6 Nordeste 11 Nordeste 0 -- -- 62
2019-04-18 13:00:00 13.2 6 Este 10 Sudeste 0 -- -- 66
2019-04-18 12:00:00 12.5 5 Sur 15 Sur 0 -- -- 69
2019-04-18 11:00:00 10.8 6 Sur 11 Sudoeste 0 -- -- 77
2019-04-18 10:00:00 9.4 4 Sudeste 10 Sudeste 0 -- -- 92
2019-04-18 09:00:00 7.9 5 Este 9 Este 0 -- -- 95
2019-04-18 08:00:00 6.5 4 Nordeste 8 Este 0 -- -- 94
2019-04-18 07:00:00 5.8 6 Este 12 Este 0 -- -- 92
2019-04-18 06:00:00 7.2 4 Sudeste 12 Sudoeste 0 -- -- 90
2019-04-18 05:00:00 8.8 9 Sur 14 Sudoeste 0 -- -- 92
2019-04-18 04:00:00 9 9 Sur 26 Sur 0.2 -- -- 91
2019-04-18 03:00:00 -- 15 Sur 29 Sur -- -- -- 90
2019-04-18 02:00:00 9.6 18 Sur 31 Sur 0 -- -- 87
2019-04-18 01:00:00 9.6 9 Sur 24 Sudeste 0 -- -- 89
2019-04-18 00:00:00 10.1 15 Sur 23 Sur 0.4 -- -- 89
2019-04-17 23:00:00 10.7 9 Sur 21 Sudoeste 0 -- -- 85
2019-04-17 22:00:00 11.2 16 Sudoeste 38 Sudoeste 0 -- -- 82
2019-04-17 21:00:00 12.8 27 Sudoeste 42 Sudoeste 0 -- -- 76
2019-04-17 20:00:00 16.5 10 Sur 29 Sur 0 -- -- 49
2019-04-17 19:00:00 17.2 17 Sur 27 Sur 0 -- -- 43
2019-04-17 18:00:00 18.1 11 Sudeste 24 Sudeste 0 -- -- 47
2019-04-17 17:00:00 19.5 11 Sudeste 26 Este 0 -- -- 43
2019-04-17 16:00:00 19.7 9 Sudeste 24 Sudeste 0 -- -- 45
2019-04-17 15:00:00 17.9 10 Sudeste 21 Sur 0 -- -- 48
2019-04-17 14:00:00 17.5 13 Sur 26 Sur 0 -- -- 48
2019-04-17 13:00:00 16.4 9 Sur 26 Sur 0 -- -- 56
2019-04-17 12:00:00 15.4 22 Sudeste 35 Sudeste 0 -- -- 60
2019-04-17 11:00:00 14.3 15 Sudeste 30 Sudeste 0 -- -- 66
2019-04-17 10:00:00 11.6 6 Sudeste 17 Sudeste 0 -- -- 77
2019-04-17 09:00:00 7.2 2 Nordeste 10 Este 0 -- -- 89
2019-04-17 08:00:00 5.3 8 Nordeste 11 Nordeste 0 -- -- 86
2019-04-17 07:00:00 4.9 6 Nordeste 12 Este 0 -- -- 83
2019-04-17 06:00:00 5.6 5 Nordeste 12 Este 0 -- -- 80
2019-04-17 05:00:00 6.2 8 Este 19 Nordeste 0 -- -- 79
2019-04-17 04:00:00 6 12 Nordeste 19 Este 0 -- -- 84
2019-04-17 03:00:00 5.3 6 Nordeste 11 Nordeste 0 -- -- 82
2019-04-17 02:00:00 5.8 5 Nordeste 12 Norte 0 -- -- 78
2019-04-17 01:00:00 7 5 Nordeste 8 Oeste 0 -- -- 71
2019-04-17 00:00:00 9 5 Noroeste 11 Este 0 -- -- 64
2019-04-16 23:00:00 10.2 8 Nordeste 9 Nordeste 0 -- -- 60
2019-04-16 22:00:00 12.7 3 Sur 8 Nordeste 0 -- -- 55
2019-04-16 21:00:00 16.1 6 Nordeste 7 Nordeste 0 -- -- 43
2019-04-16 20:00:00 19.4 3 Sudoeste 13 Sudeste 0 -- -- 32
2019-04-16 19:00:00 19.5 6 Sur 24 Sur 0 -- -- 34
2019-04-16 18:00:00 19.9 12 Este 24 Sudeste 0 -- -- 32
2019-04-16 17:00:00 19.5 12 Sudeste 26 Sudeste 0 -- -- 35
2019-04-16 16:00:00 18.1 13 Sudeste 26 Sudeste 0 -- -- 36
2019-04-16 15:00:00 17.3 10 Sur 24 Sur 0 -- -- 44
2019-04-16 14:00:00 16.8 10 Este 25 Sudeste 0 -- -- 47
2019-04-16 13:00:00 14.8 9 Sudeste 18 Sur 0 -- -- 53
2019-04-16 12:00:00 13.5 8 Este 15 Sudeste 0 -- -- 59
2019-04-16 11:00:00 11.1 5 Norte 13 Norte 0 -- -- 69
2019-04-16 10:00:00 7.1 6 Norte 10 Norte 0 -- -- 83
2019-04-16 09:00:00 2.4 3 Noroeste 5 Norte 0 -- -- 93
2019-04-16 08:00:00 -0.8 3 Nordeste 9 Nordeste 0 -- -- 92
2019-04-16 07:00:00 -0.4 4 Noroeste 9 Sur 0 -- -- 90
2019-04-16 06:00:00 0.2 7 Oeste 13 Norte 0 -- -- 92
2019-04-16 05:00:00 1.2 5 Sudoeste 7 Sudoeste 0 -- -- 91
2019-04-16 04:00:00 1.1 2 Sudeste 10 Sudeste 0 -- -- 88
2019-04-16 03:00:00 2.4 0 Calma 8 Sudoeste 0 -- -- 87
2019-04-16 02:00:00 3 2 Sur 5 Sudoeste 0 -- -- 85
2019-04-16 01:00:00 4.6 0 Calma 7 Sudoeste 0 -- -- 81
2019-04-16 00:00:00 7.4 3 Sur 10 Sudoeste 0 -- -- 77
2019-04-15 23:00:00 8.2 6 Oeste 20 Oeste 0 -- -- 73
2019-04-15 22:00:00 10.4 16 Oeste 22 Oeste 0 -- -- 68
2019-04-15 21:00:00 12.5 14 Oeste 36 Oeste 0 -- -- 63
2019-04-15 20:00:00 15 27 Oeste 42 Oeste 0 -- -- 53
2019-04-15 19:00:00 15.9 30 Sudoeste 49 Oeste 0 -- -- 49
2019-04-15 18:00:00 14.6 33 Oeste 52 Oeste 0 -- -- 56
2019-04-15 17:00:00 15.4 37 Oeste 65 Oeste 0 -- -- 48
2019-04-15 16:00:00 16.6 45 Oeste 71 Sudoeste 0 -- -- 52
2019-04-15 15:00:00 19.6 43 Sudoeste 65 Sudoeste 0 -- -- 41
2019-04-15 14:00:00 19.4 39 Sudoeste 58 Sudoeste 0 -- -- 52
2019-04-15 13:00:00 17.8 33 Sudoeste 49 Sudoeste 0 -- -- 64
2019-04-15 12:00:00 17.5 19 Sur 39 Sur 0 -- -- 69
2019-04-15 11:00:00 15.9 21 Sudeste 29 Sudeste 0 -- -- 73
2019-04-15 10:00:00 14.2 17 Sudeste 24 Sudeste 0 -- -- 80
2019-04-15 09:00:00 12.1 0 Calma 6 Sudeste 0 -- -- 87
2019-04-15 08:00:00 10.6 4 Este 8 Este 0 -- -- 90
2019-04-15 07:00:00 10.1 3 Este 10 Nordeste 0 -- -- 90
2019-04-15 06:00:00 9.9 7 Este 11 Este 0 -- -- 89
2019-04-15 05:00:00 10.4 6 Sudeste 9 Este 0 -- -- 89
2019-04-15 04:00:00 10.4 8 Este 10 Este 0 -- -- 88
2019-04-15 03:00:00 10.2 0 Calma 4 Este 0 -- -- 86
2019-04-15 02:00:00 11.2 4 Este 6 Este 0 -- -- 83
2019-04-15 01:00:00 11.5 4 Nordeste 6 Nordeste 0 -- -- 85
2019-04-15 00:00:00 11.6 3 Sur 7 Sudoeste 0 -- -- 83
2019-04-14 23:00:00 11.9 5 Sudeste 11 Sudeste 0 -- -- 79
2019-04-14 22:00:00 14.6 7 Sudoeste 15 Oeste 0 -- -- 73
2019-04-14 21:00:00 16.9 8 Sudoeste 20 Sudoeste 0 -- -- 66
2019-04-14 20:00:00 18.8 13 Sudoeste 26 Sudoeste 0 -- -- 56
2019-04-14 19:00:00 19.3 16 Sudoeste 27 Sudoeste 0 -- -- 56
2019-04-14 18:00:00 20 15 Sudoeste 28 Oeste 0 -- -- 53
2019-04-14 17:00:00 20.1 15 Sudoeste 31 Sudoeste 0 -- -- 53
2019-04-14 16:00:00 20.4 15 Oeste 24 Oeste 0 -- -- 52
2019-04-14 15:00:00 19.9 14 Sudoeste 24 Sudoeste 0 -- -- 53
2019-04-14 14:00:00 20.1 11 Oeste 21 Oeste 0 -- -- 52
2019-04-14 13:00:00 19.1 9 Sur 20 Sudoeste 0 -- -- 55
2019-04-14 12:00:00 17.3 10 Sudoeste 21 Oeste 0 -- -- 61
2019-04-14 11:00:00 14.9 12 Sudoeste 19 Sudoeste 0 -- -- 74
2019-04-14 10:00:00 12.1 9 Sur 17 Sur 0 -- -- 89
2019-04-14 09:00:00 9.9 8 Sur 14 Sur 0 -- -- 94
2019-04-14 08:00:00 7.7 4 Sur 11 Sudoeste 0 -- -- 90
2019-04-14 07:00:00 9.4 5 Sur 14 Sudoeste 0 -- -- 90
2019-04-14 06:00:00 10.3 8 Sudoeste 13 Sudoeste 0 -- -- 89
2019-04-14 05:00:00 10.9 8 Sudoeste 14 Sudoeste 0 -- -- 86
2019-04-14 04:00:00 12.1 7 Sudoeste 13 Oeste 0 -- -- 82
2019-04-14 03:00:00 12.2 9 Sudoeste 16 Sudoeste 0 -- -- 80
2019-04-14 02:00:00 12.5 10 Sudoeste 18 Sudoeste 0 -- -- 77
2019-04-14 01:00:00 13.4 13 Sudoeste 23 Sudoeste 0 -- -- 71
2019-04-14 00:00:00 14.4 11 Oeste 19 Oeste 0 -- -- 63
2019-04-13 23:00:00 15.2 17 Oeste 27 Oeste 0 -- -- 56
2019-04-13 22:00:00 15.6 12 Sudoeste 19 Oeste 0 -- -- 54
2019-04-13 21:00:00 16 14 Sudoeste 23 Oeste 0 -- -- 51
2019-04-13 20:00:00 18.6 17 Sudoeste 36 Oeste 0 -- -- 42
2019-04-13 19:00:00 20.2 18 Sudoeste 28 Sudoeste 0 -- -- 39
2019-04-13 18:00:00 20.4 14 Sudoeste 29 Sudoeste 0 -- -- 36
2019-04-13 17:00:00 20.5 12 Sur 26 Sudoeste 0 -- -- 35
2019-04-13 16:00:00 19.7 14 Sudoeste 26 Sudoeste 0 -- -- 35
2019-04-13 15:00:00 18.7 10 Sudoeste 27 Sudoeste 0 -- -- 38
2019-04-13 14:00:00 17.6 7 Sur 21 Sur 0 -- -- 43
2019-04-13 13:00:00 15.7 8 Sur 16 Sur 0 -- -- 49
2019-04-13 12:00:00 13.6 4 Sur 11 Oeste 0 -- -- 53
2019-04-13 11:00:00 10.6 4 Sudeste 8 Sudeste 0 -- -- 61
2019-04-13 10:00:00 8.5 4 Este 15 Norte 0 -- -- 72
2019-04-13 09:00:00 3.5 3 Norte 12 Norte 0 -- -- 89
2019-04-13 08:00:00 1.3 5 Noroeste 11 Noroeste 0 -- -- 89
2019-04-13 07:00:00 2.2 6 Noroeste 10 Norte 0 -- -- 88
2019-04-13 06:00:00 1.9 5 Oeste 7 Noroeste 0 -- -- 89
2019-04-13 05:00:00 1.4 0 Calma 9 Norte 0 -- -- 86
2019-04-13 04:00:00 1.6 7 Norte 9 Norte 0 -- -- 85
2019-04-13 03:00:00 2.4 3 Este 4 Este 0 -- -- 80
2019-04-13 02:00:00 3.7 0 Calma 5 Nordeste 0 -- -- 78
2019-04-13 01:00:00 4.8 3 Nordeste 13 Este 0 -- -- 75
2019-04-13 00:00:00 5.5 5 Nordeste 7 Nordeste 0 -- -- 73
2019-04-12 23:00:00 6.9 5 Este 8 Sudeste 0 -- -- 67
2019-04-12 22:00:00 8.6 6 Sudeste 16 Sudeste 0 -- -- 63
2019-04-12 21:00:00 12.5 9 Sudeste 11 Sudeste 0 -- -- 56
2019-04-12 20:00:00 16.1 3 Sudeste 13 Sudeste 0 -- -- 39
2019-04-12 19:00:00 16.5 8 Sudoeste 15 Oeste 0 -- -- 40
2019-04-12 18:00:00 16.6 5 Norte 18 Sur 0 -- -- 41
2019-04-12 17:00:00 16.1 8 Sur 21 Sudeste 0 -- -- 44
2019-04-12 16:00:00 15.4 5 Sudoeste 15 Noroeste 0 -- -- 46
2019-04-12 15:00:00 14.2 8 Noroeste 19 Oeste 0 -- -- 49
2019-04-12 14:00:00 13.3 6 Sudoeste 14 Noroeste 0 -- -- 55
2019-04-12 13:00:00 12.4 5 Oeste 14 Este 0 -- -- 57
2019-04-12 12:00:00 10.9 6 Este 15 Este 0 -- -- 63
2019-04-12 11:00:00 8.5 5 Norte 12 Nordeste 0 -- -- 76
2019-04-12 10:00:00 5.2 8 Norte 11 Norte 0 -- -- 91
2019-04-12 09:00:00 1.1 7 Noroeste 12 Noroeste 0 -- -- 95
2019-04-12 08:00:00 -1.2 7 Noroeste 8 Noroeste 0 -- -- 92
2019-04-12 07:00:00 -0.6 5 Norte 8 Noroeste 0 -- -- 92
2019-04-12 06:00:00 -0.4 7 Noroeste 10 Noroeste 0 -- -- 92
2019-04-12 05:00:00 0.5 7 Noroeste 8 Noroeste 0 -- -- 90
2019-04-12 04:00:00 1.1 3 Sudeste 10 Norte 0 -- -- 90
2019-04-12 03:00:00 1.7 10 Norte 12 Norte 0 -- -- 88
2019-04-12 02:00:00 3.4 4 Nordeste 13 Nordeste 0 -- -- 85
2019-04-12 01:00:00 4.9 12 Nordeste 17 Nordeste 0 -- -- 85
2019-04-12 00:00:00 4.8 12 Norte 15 Norte 0 -- -- 79
2019-04-11 23:00:00 5.5 7 Este 14 Nordeste 0 -- -- 76
2019-04-11 22:00:00 7.6 4 Norte 9 Norte 0 -- -- 68
2019-04-11 21:00:00 11.2 7 Norte 10 Nordeste 0 -- -- 57
2019-04-11 20:00:00 14.2 11 Nordeste 19 Noroeste 0 -- -- 43
2019-04-11 19:00:00 15.4 7 Norte 21 Norte 0 -- -- 39
2019-04-11 18:00:00 15.3 8 Norte 25 Noroeste 0 -- -- 38
2019-04-11 17:00:00 14.5 6 Oeste 18 Norte 0 -- -- 39
2019-04-11 16:00:00 14.3 7 Norte 22 Norte 0 -- -- 40
2019-04-11 15:00:00 14.5 7 Este 17 Este 0 -- -- 43
2019-04-11 14:00:00 13.5 4 Norte 18 Oeste 0 -- -- 45
2019-04-11 13:00:00 12.1 6 Norte 22 Norte 0 -- -- 52
2019-04-11 12:00:00 10.7 7 Norte 14 Noroeste 0 -- -- 57
2019-04-11 11:00:00 8.3 11 Noroeste 17 Noroeste 0 -- -- 68
2019-04-11 10:00:00 5.4 10 Noroeste 14 Noroeste 0 -- -- 85
2019-04-11 09:00:00 1.3 4 Noroeste 9 Oeste 0 -- -- 93
2019-04-11 08:00:00 -1.3 6 Noroeste 8 Noroeste 0 -- -- 91
2019-04-11 07:00:00 -0.7 4 Oeste 11 Oeste 0 -- -- 91
2019-04-11 06:00:00 -0.5 4 Oeste 7 Oeste 0 -- -- 92
2019-04-11 05:00:00 0.1 5 Norte 12 Noroeste 0 -- -- 91
2019-04-11 04:00:00 0.4 6 Norte 8 Noroeste 0 -- -- 89
2019-04-11 03:00:00 1.9 0 Calma 13 Norte 0 -- -- 89
2019-04-11 02:00:00 3.2 8 Noroeste 14 Nordeste 0 -- -- 85
2019-04-11 01:00:00 6.4 10 Nordeste 18 Nordeste 0 -- -- 77
2019-04-11 00:00:00 5.7 11 Norte 15 Norte 0 -- -- 85
2019-04-10 23:00:00 4.7 6 Norte 16 Norte 0 -- -- 84
2019-04-10 22:00:00 6.3 12 Norte 21 Nordeste 0 -- -- 80
2019-04-10 21:00:00 9.2 14 Nordeste 24 Norte 0 -- -- 72
2019-04-10 20:00:00 11.2 13 Norte 35 Norte 0.6 -- -- 67
2019-04-10 19:00:00 13.9 21 Norte 32 Nordeste 0 -- -- 53
2019-04-10 18:00:00 13.9 18 Noroeste 26 Noroeste 0 -- -- 53
2019-04-10 17:00:00 11.4 15 Noroeste 34 Noroeste 0 -- -- 65
2019-04-10 16:00:00 12.2 19 Norte 32 Norte 0 -- -- 61
2019-04-10 15:00:00 11.3 24 Norte 37 Norte 0.2 -- -- 69
2019-04-10 14:00:00 11.5 23 Noroeste 40 Noroeste 0 -- -- 67
2019-04-10 13:00:00 11.8 24 Noroeste 36 Noroeste 0 -- -- 59
2019-04-10 12:00:00 10.8 13 Sudoeste 25 Oeste 0 -- -- 64
2019-04-10 11:00:00 7.8 18 Sudoeste 36 Sudoeste 0 -- -- 75
2019-04-10 10:00:00 5.6 10 Sudoeste 21 Sudoeste 0 -- -- 86
2019-04-10 09:00:00 4.6 14 Sudoeste 20 Oeste 0 -- -- 88
2019-04-10 08:00:00 3.6 4 Sur 15 Sudoeste 0 -- -- 91
2019-04-10 07:00:00 3.3 11 Oeste 17 Sudoeste 0 -- -- 93
2019-04-10 06:00:00 2.5 5 Sudoeste 12 Sudoeste 0 -- -- 92
2019-04-10 05:00:00 3 10 Sudoeste 20 Sudoeste 0 -- -- 89
2019-04-10 04:00:00 3.8 15 Sudoeste 22 Sudoeste 0 -- -- 89
2019-04-10 03:00:00 3.7 12 Oeste 22 Sudoeste 0 -- -- 89
2019-04-10 02:00:00 4.5 15 Oeste 31 Sudoeste 0 -- -- 86
2019-04-10 01:00:00 5.1 17 Sudoeste 38 Sudoeste 0 -- -- 84
2019-04-10 00:00:00 6.2 22 Sudoeste 36 Sudoeste 0 -- -- 82
2019-04-09 23:00:00 6.8 18 Oeste 27 Oeste 0 -- -- 84
2019-04-09 22:00:00 6.6 12 Sudoeste 30 Sudoeste 0 -- -- 85
2019-04-09 21:00:00 6.9 19 Sudoeste 40 Oeste 0 -- -- 83
2019-04-09 20:00:00 9.2 24 Oeste 43 Oeste 0 -- -- 67
2019-04-09 19:00:00 11.3 29 Sudoeste 50 Sudoeste 0 -- -- 58
2019-04-09 18:00:00 11.1 27 Sudoeste 45 Sudoeste 0 -- -- 64
2019-04-09 17:00:00 10.5 29 Sudoeste 45 Sudoeste 0.2 -- -- 65
2019-04-09 16:00:00 11.5 28 Oeste 45 Oeste 0 -- -- 59
2019-04-09 15:00:00 10.6 26 Oeste 39 Sudoeste 0 -- -- 64
2019-04-09 14:00:00 8.6 24 Oeste 40 Oeste 0 -- -- 76
2019-04-09 13:00:00 6.6 26 Oeste 41 Sudoeste 0 -- -- 82
2019-04-09 12:00:00 5.3 22 Sudoeste 36 Oeste 0.8 -- -- 88
2019-04-09 11:00:00 5.5 28 Oeste 37 Oeste 2.2 -- -- 89
2019-04-09 10:00:00 6.7 18 Sudoeste 34 Sudoeste 0 -- -- 88
2019-04-09 09:00:00 5.8 16 Sur 27 Sudoeste 0 -- -- 92
2019-04-09 08:00:00 5.4 14 Sur 31 Sudoeste 0 -- -- 90
2019-04-09 07:00:00 5.7 16 Sur 27 Sur 0 -- -- 89
2019-04-09 06:00:00 5.3 14 Sur 25 Sur 0 -- -- 91
2019-04-09 05:00:00 4.7 9 Sur 15 Sur 0 -- -- 91
2019-04-09 04:00:00 4.6 9 Sur 22 Sur 0 -- -- 91
2019-04-09 03:00:00 4.7 8 Sur 17 Sur 0 -- -- 91
2019-04-09 02:00:00 4.1 9 Sur 13 Sur 0 -- -- 90
2019-04-09 01:00:00 4.5 9 Sudoeste 20 Sudoeste 0 -- -- 90
2019-04-09 00:00:00 4.9 13 Sur 23 Sur 0 -- -- 86
2019-04-08 23:00:00 4.3 3 Este 13 Sudoeste 0 -- -- 83
2019-04-08 22:00:00 6.5 13 Sudoeste 19 Sudoeste 0 -- -- 79
2019-04-08 21:00:00 7.6 13 Sudoeste 36 Sudoeste 0.2 -- -- 77
2019-04-08 20:00:00 10.1 14 Sudoeste 40 Sudoeste 0 -- -- 70
2019-04-08 19:00:00 12.6 24 Sudoeste 34 Sur 0 -- -- 49
2019-04-08 18:00:00 12.7 20 Sudoeste 32 Sudoeste 0 -- -- 48
2019-04-08 17:00:00 13.6 22 Sudoeste 36 Sudoeste 0 -- -- 52
2019-04-08 16:00:00 13.3 23 Sudoeste 39 Oeste 0 -- -- 53
2019-04-08 15:00:00 11.2 19 Sudoeste 35 Sudoeste 0 -- -- 65
2019-04-08 14:00:00 11.6 17 Sudoeste 32 Oeste 0 -- -- 55
2019-04-08 13:00:00 12.2 21 Sudoeste 35 Sudoeste 0 -- -- 54
2019-04-08 12:00:00 10.5 26 Oeste 39 Sudoeste 0 -- -- 59
2019-04-08 11:00:00 10.1 20 Oeste 35 Sudoeste 0 -- -- 71
2019-04-08 10:00:00 8.5 23 Sudoeste 32 Sudoeste 0 -- -- 81
2019-04-08 09:00:00 7.4 18 Sudoeste 29 Sudoeste 0 -- -- 85
2019-04-08 08:00:00 7 16 Sudoeste 26 Sudoeste 0 -- -- 90
2019-04-08 07:00:00 7.2 11 Sudoeste 26 Oeste 0 -- -- 90
2019-04-08 06:00:00 8.2 15 Sudoeste 31 Sudoeste 0 -- -- 90
2019-04-08 05:00:00 8.3 12 Sudoeste 29 Sur 0 -- -- 93
2019-04-08 04:00:00 8.5 13 Sur 25 Sudoeste 0.4 -- -- 91
2019-04-08 03:00:00 8.8 15 Sur 27 Sudoeste 0 -- -- 90
2019-04-08 02:00:00 8.9 13 Sur 27 Sur 0 -- -- 91
2019-04-08 01:00:00 8.8 13 Sur 23 Sur 0.2 -- -- 94
2019-04-08 00:00:00 8.2 14 Sur 31 Sudeste 0 -- -- 95
2019-04-07 23:00:00 7.1 20 Sudeste 29 Sudeste 0.8 -- -- 94
2019-04-07 22:00:00 6.7 18 Sudeste 25 Sudeste 0.4 -- -- 93
2019-04-07 21:00:00 6.5 12 Sudeste 19 Sudeste 0.2 -- -- 91
2019-04-07 20:00:00 6.6 11 Sudeste 15 Sudeste 0.4 -- -- 89
2019-04-07 19:00:00 6.7 9 Sur 23 Sudoeste 0.6 -- -- 86
2019-04-07 18:00:00 6.7 19 Sudoeste 35 Sudoeste 0.8 -- -- 84
2019-04-07 17:00:00 7.8 25 Sudoeste 40 Sudoeste 0.2 -- -- 78
2019-04-07 16:00:00 10.1 21 Sudoeste 39 Sudoeste 0 -- -- 56
2019-04-07 15:00:00 11 20 Sudoeste 37 Sudoeste 0 -- -- 55
2019-04-07 14:00:00 10.8 21 Sudoeste 35 Sudoeste 0 -- -- 52
2019-04-07 13:00:00 10.3 15 Sudoeste 28 Sudoeste 0 -- -- 55
2019-04-07 12:00:00 8.8 11 Sudoeste 18 Sur 0 -- -- 58
2019-04-07 11:00:00 7.3 6 Sudoeste 18 Sudoeste 0 -- -- 69
2019-04-07 10:00:00 4.4 9 Sudoeste 15 Sudoeste 0 -- -- 85
2019-04-07 09:00:00 0.9 7 Sur 10 Sur 0 -- -- 92
2019-04-07 08:00:00 -1.4 2 Oeste 10 Oeste 0 -- -- 89
2019-04-07 07:00:00 -0.2 9 Oeste 20 Sudoeste 0 -- -- 89
2019-04-07 06:00:00 1.4 15 Oeste 23 Oeste 0 -- -- 89
2019-04-07 05:00:00 0.7 12 Oeste 17 Oeste 0 -- -- 89
2019-04-07 04:00:00 1.5 12 Oeste 28 Oeste 0 -- -- 85
2019-04-07 03:00:00 2.8 15 Sudoeste 36 Oeste 0 -- -- 82
2019-04-07 02:00:00 3.7 23 Sudoeste 33 Sudoeste 0 -- -- 81
2019-04-07 01:00:00 3.9 18 Sudoeste 29 Sudoeste 0 -- -- 81
2019-04-07 00:00:00 4 13 Sudoeste 31 Oeste 0 -- -- 78
2019-04-06 23:00:00 4.6 19 Sudoeste 37 Sudoeste 0 -- -- 74
2019-04-06 22:00:00 5.3 19 Oeste 42 Sudoeste 0 -- -- 70
2019-04-06 21:00:00 6.6 22 Sudoeste 46 Oeste 0 -- -- 61
2019-04-06 20:00:00 8.7 36 Oeste 67 Oeste 0 -- -- 53
2019-04-06 19:00:00 9.6 38 Oeste 57 Oeste 0 -- -- 51
2019-04-06 18:00:00 9.9 43 Oeste 64 Sudoeste 0 -- -- 56
2019-04-06 17:00:00 9.2 39 Sudoeste 65 Oeste 0 -- -- 60
2019-04-06 16:00:00 9.3 37 Sudoeste 65 Sudoeste 0 -- -- 61
2019-04-06 15:00:00 9.5 35 Sudoeste 55 Sudoeste 0 -- -- 64
2019-04-06 14:00:00 8.1 36 Sudoeste 62 Sudoeste 0 -- -- 68
2019-04-06 13:00:00 6.3 36 Sudoeste 57 Sudoeste 0 -- -- 75
2019-04-06 12:00:00 5.3 35 Sudoeste 55 Oeste 0 -- -- 77
2019-04-06 11:00:00 4.8 27 Sudoeste 46 Sudoeste 0 -- -- 80
2019-04-06 10:00:00 4.3 24 Sudoeste 57 Sur 0 -- -- 83
2019-04-06 09:00:00 3.5 17 Sudoeste 32 Sudoeste 0 -- -- 87
2019-04-06 08:00:00 3.7 20 Sudoeste 33 Sudoeste 0 -- -- 88
2019-04-06 07:00:00 3.5 21 Sudoeste 32 Sudoeste 0 -- -- 89
2019-04-06 06:00:00 3.5 12 Sur 27 Sudoeste 0 -- -- 89
2019-04-06 05:00:00 3.5 14 Sudoeste 27 Sudoeste 0 -- -- 88
2019-04-06 04:00:00 3.1 15 Sudoeste 31 Sudoeste 0 -- -- 89
2019-04-06 03:00:00 2.6 13 Sudoeste 21 Sudoeste 0 -- -- 91
2019-04-06 02:00:00 2.2 12 Sudoeste 23 Sudoeste 0 -- -- 92
2019-04-06 01:00:00 1 8 Sudeste 11 Sudeste 0 -- -- 89
2019-04-06 00:00:00 1.9 8 Sudoeste 19 Sudoeste 0 -- -- 90
2019-04-05 23:00:00 2.8 11 Sudoeste 27 Sudoeste 0 -- -- 88
2019-04-05 22:00:00 4.1 21 Sudoeste 34 Sudoeste 0 -- -- 81
2019-04-05 21:00:00 5.5 14 Sudoeste 32 Sudoeste 0 -- -- 68
2019-04-05 20:00:00 7.7 23 Oeste 37 Sudoeste 0 -- -- 57
2019-04-05 19:00:00 9.1 28 Oeste 48 Oeste 0 -- -- 55
2019-04-05 18:00:00 9.6 20 Oeste 38 Oeste 0 -- -- 46
2019-04-05 17:00:00 10.5 26 Oeste 48 Sudoeste 0 -- -- 51
2019-04-05 16:00:00 8.9 15 Sudoeste 48 Oeste 0 -- -- 52
2019-04-05 15:00:00 8.1 25 Sudoeste 40 Sudoeste 0 -- -- 63
2019-04-05 14:00:00 7.6 17 Sudoeste 31 Sudoeste 0 -- -- 60
2019-04-05 13:00:00 6.7 20 Sudoeste 32 Sudoeste 0 -- -- 66
2019-04-05 12:00:00 5.7 17 Sudoeste 27 Oeste 0 -- -- 71
2019-04-05 11:00:00 4.7 15 Sudoeste 32 Sudoeste 0 -- -- 78
2019-04-05 10:00:00 4.5 18 Sudoeste 28 Sudoeste 0 -- -- 83
2019-04-05 09:00:00 3.3 17 Sudoeste 30 Sudoeste 0 -- -- 86
2019-04-05 08:00:00 3.4 19 Sudoeste 30 Sudoeste 0 -- -- 88
2019-04-05 07:00:00 4.1 12 Sudoeste 26 Sudoeste 0 -- -- 86
2019-04-05 06:00:00 4.7 20 Sudoeste 35 Sudoeste 0.4 -- -- 89
2019-04-05 05:00:00 5 15 Sur 32 Sur 0 -- -- 92
2019-04-05 04:00:00 5 16 Sur 34 Sur 0 -- -- 90
2019-04-05 03:00:00 4.8 20 Sur 34 Sur 0.2 -- -- 90
2019-04-05 02:00:00 4.9 19 Sur 28 Sur 1 -- -- 90
2019-04-05 01:00:00 4.8 16 Sur 27 Sur 0 -- -- 89
2019-04-05 00:00:00 4.7 16 Sur 28 Sur 0.4 -- -- 90
2019-04-04 23:00:00 4.8 13 Sur 22 Sudoeste 0.2 -- -- 89
2019-04-04 22:00:00 5 8 Sur 15 Sudoeste 0.4 -- -- 89
2019-04-04 21:00:00 4.8 12 Sudoeste 24 Sudoeste 0.4 -- -- 87
2019-04-04 20:00:00 5.4 15 Sudoeste 33 Sudoeste 0.2 -- -- 81
2019-04-04 19:00:00 6.2 21 Sudoeste 46 Oeste 0.2 -- -- 75
2019-04-04 18:00:00 8.5 27 Sudoeste 41 Sudoeste 0 -- -- 45
2019-04-04 17:00:00 9.9 28 Sudoeste 46 Oeste 0 -- -- 46
2019-04-04 16:00:00 11 26 Sudoeste 38 Sudoeste 0 -- -- 37
2019-04-04 15:00:00 10.6 24 Sudoeste 45 Sudoeste 0 -- -- 38
2019-04-04 14:00:00 9.5 21 Sudoeste 30 Oeste 0 -- -- 45
2019-04-04 13:00:00 9.3 18 Sudoeste 28 Sudoeste 0 -- -- 47
2019-04-04 12:00:00 8.4 15 Sudoeste 26 Sudoeste 0 -- -- 51
2019-04-04 11:00:00 6.7 12 Sudoeste 20 Sudoeste 0 -- -- 53
2019-04-04 10:00:00 2.7 5 Sur 12 Sudoeste 0 -- -- 67
2019-04-04 09:00:00 -1.2 6 Sudoeste 13 Sudoeste 0 -- -- 78
2019-04-04 08:00:00 -3.6 5 Sur 16 Oeste 0 -- -- 81
2019-04-04 07:00:00 -3.3 11 Oeste 16 Oeste 0 -- -- 79
2019-04-04 06:00:00 -3.1 10 Oeste 11 Oeste 0 -- -- 76
2019-04-04 05:00:00 -1.3 6 Oeste 10 Sudoeste 0 -- -- 74
2019-04-04 04:00:00 -2.5 8 Oeste 12 Oeste 0 -- -- 79
2019-04-04 03:00:00 -1 8 Oeste 10 Oeste 0 -- -- 73
2019-04-04 02:00:00 -0.9 10 Oeste 17 Oeste 0 -- -- 75
2019-04-04 01:00:00 0.7 4 Oeste 13 Oeste 0 -- -- 68
2019-04-04 00:00:00 2.3 12 Oeste 24 Noroeste 0 -- -- 64
2019-04-03 23:00:00 3.5 18 Noroeste 36 Noroeste 0 -- -- 59
2019-04-03 22:00:00 4.3 21 Noroeste 36 Noroeste 0 -- -- 58
2019-04-03 21:00:00 6.1 25 Noroeste 46 Oeste 0 -- -- 46
2019-04-03 20:00:00 8.9 25 Noroeste 40 Noroeste 0 -- -- 40
2019-04-03 19:00:00 10.7 28 Noroeste 49 Noroeste 0 -- -- 35
2019-04-03 18:00:00 11.5 32 Noroeste 50 Noroeste 0 -- -- 34
2019-04-03 17:00:00 12.4 27 Oeste 46 Noroeste 0 -- -- 35
2019-04-03 16:00:00 12.6 32 Noroeste 55 Oeste 0 -- -- 37
2019-04-03 15:00:00 12 27 Noroeste 50 Noroeste 0 -- -- 35
2019-04-03 14:00:00 12.3 30 Noroeste 51 Oeste 0 -- -- 34
2019-04-03 13:00:00 10.7 33 Noroeste 48 Noroeste 0 -- -- 36
2019-04-03 12:00:00 10.6 28 Noroeste 45 Noroeste 0 -- -- 39
2019-04-03 11:00:00 9.3 28 Noroeste 44 Noroeste 0 -- -- 42
2019-04-03 10:00:00 7.3 27 Noroeste 41 Noroeste 0 -- -- 53
2019-04-03 09:00:00 5.1 19 Noroeste 30 Noroeste 0 -- -- 62
2019-04-03 08:00:00 5.6 21 Noroeste 31 Noroeste 0 -- -- 60
2019-04-03 07:00:00 5.5 21 Noroeste 28 Noroeste 0 -- -- 66
2019-04-03 06:00:00 4.8 13 Noroeste 21 Noroeste 0 -- -- 78
2019-04-03 05:00:00 1.9 3 Sudoeste 10 Oeste 0 -- -- 81
2019-04-03 04:00:00 1.3 6 Noroeste 9 Noroeste 0 -- -- 84
2019-04-03 03:00:00 3.1 4 Noroeste 6 Norte 0 -- -- 79
2019-04-03 02:00:00 3.7 5 Norte 10 Norte 0 -- -- 76
2019-04-03 01:00:00 4.4 5 Noroeste 8 Noroeste 0 -- -- 71
2019-04-03 00:00:00 6 4 Noroeste 14 Noroeste 0 -- -- 66
2019-04-02 23:00:00 8.3 13 Noroeste 19 Noroeste 0 -- -- 60
2019-04-02 22:00:00 10.7 13 Noroeste 37 Noroeste 0 -- -- 52
2019-04-02 21:00:00 13.6 24 Noroeste 35 Noroeste 0 -- -- 46
2019-04-02 20:00:00 17.4 6 Oeste 27 Oeste 0 -- -- 37
2019-04-02 19:00:00 17.4 16 Oeste 28 Noroeste 0 -- -- 38
2019-04-02 18:00:00 17.5 8 Sudoeste 25 Sudoeste 0 -- -- 36
2019-04-02 17:00:00 19.2 5 Norte 23 Noroeste 0 -- -- 34
2019-04-02 16:00:00 18 6 Sur 23 Oeste 0 -- -- 40
2019-04-02 15:00:00 16.4 8 Noroeste 19 Noroeste 0 -- -- 46
2019-04-02 14:00:00 16.4 6 Este 17 Nordeste 0 -- -- 53
2019-04-02 13:00:00 14.8 5 Nordeste 16 Nordeste 0 -- -- 58
2019-04-02 12:00:00 13.4 10 Este 21 Este 0 -- -- 61
2019-04-02 11:00:00 10.6 10 Norte 18 Norte 0 -- -- 71
2019-04-02 10:00:00 7.6 12 Noroeste 17 Noroeste 0 -- -- 79
2019-04-02 09:00:00 3 8 Noroeste 14 Noroeste 0 -- -- 91
2019-04-02 08:00:00 2.1 9 Noroeste 12 Noroeste 0 -- -- 90
2019-04-02 07:00:00 2.9 5 Noroeste 10 Noroeste 0 -- -- 90
2019-04-02 06:00:00 2.9 5 Nordeste 9 Norte 0 -- -- 86
2019-04-02 05:00:00 3.4 8 Nordeste 14 Norte 0 -- -- 87
2019-04-02 04:00:00 3.7 4 Nordeste 14 Sudeste 0 -- -- 83
2019-04-02 03:00:00 5 7 Este 16 Nordeste 0 -- -- 80
2019-04-02 02:00:00 6.2 4 Este 6 Noroeste 0 -- -- 74
2019-04-02 01:00:00 8 4 Nordeste 23 Norte 0 -- -- 71
2019-04-02 00:00:00 8.2 4 Sur 10 Oeste 0 -- -- 73
2019-04-01 23:00:00 8.2 3 Oeste 13 Oeste 0 -- -- 67
2019-04-01 22:00:00 10.9 10 Oeste 17 Oeste 0 -- -- 58
2019-04-01 21:00:00 13 15 Oeste 26 Oeste 0 -- -- 51
2019-04-01 20:00:00 16.5 6 Sur 12 Oeste 0 -- -- 42
2019-04-01 19:00:00 17.7 2 Este 11 Nordeste 0 -- -- 37
2019-04-01 18:00:00 18.4 7 Noroeste 18 Norte 0 -- -- 34
2019-04-01 17:00:00 18.2 4 Oeste 17 Sudoeste 0 -- -- 35
2019-04-01 16:00:00 17.7 5 Nordeste 17 Sur 0 -- -- 41
2019-04-01 15:00:00 16.3 7 Sur 17 Oeste 0 -- -- 45
2019-04-01 14:00:00 15.2 5 Noroeste 14 Oeste 0 -- -- 47
2019-04-01 13:00:00 13.9 5 Noroeste 13 Nordeste 0 -- -- 52
2019-04-01 12:00:00 12.7 7 Norte 17 Este 0 -- -- 60
2019-04-01 11:00:00 10.7 10 Nordeste 17 Nordeste 0 -- -- 67
2019-04-01 10:00:00 7 7 Norte 11 Nordeste 0 -- -- 84
2019-04-01 09:00:00 3.6 8 Norte 13 Norte 0 -- -- 92
2019-04-01 08:00:00 1.5 10 Norte 12 Norte 0 -- -- 91
2019-04-01 07:00:00 2.3 9 Noroeste 21 Nordeste 0 -- -- 87
2019-04-01 06:00:00 3.5 14 Nordeste 23 Nordeste 0 -- -- 92
2019-04-01 05:00:00 2.2 10 Norte 17 Norte 0 -- -- 87
2019-04-01 04:00:00 3.8 8 Norte 15 Nordeste 0 -- -- 82
2019-04-01 03:00:00 5.4 13 Nordeste 21 Nordeste 0 -- -- 82
2019-04-01 02:00:00 5.3 9 Norte 16 Nordeste 0 -- -- 81
2019-04-01 01:00:00 6.6 11 Nordeste 18 Nordeste 0 -- -- 78
2019-04-01 00:00:00 9.4 13 Este 20 Este 0 -- -- 70
2019-03-31 23:00:00 11.5 12 Este 25 Este 0 -- -- 63
2019-03-31 22:00:00 13.2 15 Este 33 Nordeste 0 -- -- 50
2019-03-31 21:00:00 14.4 23 Este 33 Norte 0 -- -- 43
2019-03-31 20:00:00 16.2 12 Nordeste 29 Este 0 -- -- 38
2019-03-31 19:00:00 15.6 18 Nordeste 52 Este 0 -- -- 40
2019-03-31 18:00:00 17 9 Sudeste 28 Este 0 -- -- 34
2019-03-31 17:00:00 17.9 16 Este 29 Este 0 -- -- 35
2019-03-31 16:00:00 18.5 18 Este 49 Este 0 -- -- 33
2019-03-31 15:00:00 19.7 18 Este 32 Este 0 -- -- 35
2019-03-31 14:00:00 18 14 Nordeste 22 Nordeste 0 -- -- 40
2019-03-31 13:00:00 16.7 8 Nordeste 20 Nordeste 0 -- -- 45
2019-03-31 12:00:00 12.3 10 Nordeste 15 Nordeste 0 -- -- 52
2019-03-31 11:00:00 9.3 10 Nordeste 15 Nordeste 0 -- -- 57
2019-03-31 10:00:00 5.5 6 Norte 13 Norte 0 -- -- 79
2019-03-31 09:00:00 1.6 9 Noroeste 14 Norte 0 -- -- 85
2019-03-31 08:00:00 0.8 8 Noroeste 13 Norte 0 -- -- 84
2019-03-31 07:00:00 0.3 11 Norte 12 Norte 0 -- -- 85
2019-03-31 06:00:00 1.5 7 Noroeste 15 Noroeste 0 -- -- 82
2019-03-31 05:00:00 2.8 8 Noroeste 16 Norte 0 -- -- 81
2019-03-31 03:00:00 5.6 4 Norte 17 Sur 0 -- -- 67
2019-03-31 01:00:00 7.6 12 Norte 20 Norte 0 -- -- 62
2019-03-31 00:00:00 7.9 13 Norte 21 Norte 0 -- -- 68
2019-03-30 23:00:00 8.5 10 Norte 16 Norte 0 -- -- 63
2019-03-30 22:00:00 9.2 5 Noroeste 8 Noroeste 0 -- -- 61
2019-03-30 21:00:00 9.5 6 Norte 9 Este 0 -- -- 60
2019-03-30 20:00:00 12.6 7 Este 10 Este 0 -- -- 48
2019-03-30 19:00:00 17.2 9 Nordeste 13 Este 0 -- -- 34
2019-03-30 18:00:00 17.9 8 Sudeste 18 Sudeste 0 -- -- 34
2019-03-30 17:00:00 19.5 6 Nordeste 13 Este 0 -- -- 30
2019-03-30 16:00:00 18.7 4 Noroeste 14 Sur 0 -- -- 33
2019-03-30 15:00:00 18 6 Sur 15 Sudeste 0 -- -- 37
2019-03-30 14:00:00 17 6 Sur 13 Sudeste 0 -- -- 43
2019-03-30 13:00:00 15.7 6 Sur 13 Sur 0 -- -- 42
2019-03-30 12:00:00 13.6 3 Noroeste 10 Nordeste 0 -- -- 45
2019-03-30 11:00:00 9.7 4 Nordeste 8 Nordeste 0 -- -- 57
2019-03-30 10:00:00 7.9 5 Norte 10 Norte 0 -- -- 61
2019-03-30 09:00:00 5.7 8 Norte 13 Norte 0 -- -- 71
2019-03-30 08:00:00 3.3 5 Oeste 6 Noroeste 0 -- -- 76
2019-03-30 07:00:00 2.4 0 Calma 6 Sur 0 -- -- 71
2019-03-30 06:00:00 3.7 5 Sudeste 12 Sur 0 -- -- 63
2019-03-30 05:00:00 5.2 11 Sudeste 15 Sudeste 0 -- -- 60
2019-03-30 04:00:00 5.1 8 Sur 11 Sur 0 -- -- 63
2019-03-30 03:00:00 4.7 0 Calma 7 Sur 0 -- -- 64
2019-03-30 02:00:00 7.7 6 Sur 16 Sur 0 -- -- 54
2019-03-30 01:00:00 7.4 6 Sudeste 12 Sudeste 0 -- -- 52
2019-03-30 00:00:00 8.3 8 Sur 16 Sur 0 -- -- 53
2019-03-29 23:00:00 6.7 5 Sur 9 Sur 0 -- -- 62
2019-03-29 22:00:00 8.5 5 Sudoeste 9 Sudoeste 0 -- -- 59
2019-03-29 21:00:00 9.9 4 Sur 10 Sudeste 0 -- -- 51
2019-03-29 20:00:00 12.8 9 Sur 15 Sur 0 -- -- 47
2019-03-29 19:00:00 16.9 10 Sudeste 18 Sudeste 0 -- -- 33
2019-03-29 18:00:00 18.5 11 Sudeste 19 Sur 0 -- -- 28
2019-03-29 17:00:00 19 7 Sur 19 Sudeste 0 -- -- 28
2019-03-29 16:00:00 18.9 6 Sur 17 Sur 0 -- -- 31
2019-03-29 15:00:00 18.1 6 Sur 15 Sur 0 -- -- 36
2019-03-29 14:00:00 16.6 6 Sur 16 Sur 0 -- -- 40
2019-03-29 13:00:00 15.1 7 Sur 14 Sur 0 -- -- 45
2019-03-29 12:00:00 13.6 5 Sudeste 9 Sudeste 0 -- -- 48
2019-03-29 11:00:00 11.6 6 Este 12 Norte 0 -- -- 54
2019-03-29 10:00:00 8.2 8 Norte 15 Norte 0 -- -- 60
2019-03-29 09:00:00 5.1 10 Norte 16 Norte 0 -- -- 71
2019-03-29 08:00:00 0.2 10 Noroeste 12 Noroeste 0 -- -- 86
2019-03-29 07:00:00 -0.4 11 Norte 21 Norte 0 -- -- 83
2019-03-29 06:00:00 0.6 11 Norte 18 Norte 0 -- -- 81
2019-03-29 05:00:00 1 13 Norte 20 Norte 0 -- -- 81
2019-03-29 04:00:00 1.3 12 Norte 17 Norte 0 -- -- 81
2019-03-29 03:00:00 1.9 13 Norte 17 Norte 0 -- -- 80
2019-03-29 02:00:00 2.6 12 Norte 13 Norte 0 -- -- 78
2019-03-29 01:00:00 4.3 4 Noroeste 18 Nordeste 0 -- -- 75
2019-03-29 00:00:00 5.8 12 Norte 22 Nordeste 0 -- -- 71
2019-03-28 23:00:00 8 14 Nordeste 22 Nordeste 0 -- -- 64
2019-03-28 22:00:00 9.8 18 Nordeste 30 Nordeste 0 -- -- 57
2019-03-28 21:00:00 10.9 22 Nordeste 29 Nordeste 0 -- -- 49
2019-03-28 20:00:00 12 14 Nordeste 22 Nordeste 0 -- -- 45
2019-03-28 19:00:00 16.5 17 Este 32 Este 0 -- -- 34
2019-03-28 18:00:00 18 22 Este 36 Este 0 -- -- 31
2019-03-28 17:00:00 18.6 21 Este 36 Norte 0 -- -- 29
2019-03-28 16:00:00 18.5 16 Nordeste 30 Nordeste 0 -- -- 32
2019-03-28 15:00:00 17.4 19 Este 33 Nordeste 0 -- -- 35
2019-03-28 14:00:00 16.6 17 Nordeste 40 Este 0 -- -- 36
2019-03-28 13:00:00 15.5 20 Este 37 Nordeste 0 -- -- 40
2019-03-28 12:00:00 14 26 Nordeste 45 Nordeste 0 -- -- 45
2019-03-28 11:00:00 12 31 Nordeste 45 Nordeste 0 -- -- 48
2019-03-28 10:00:00 9.4 29 Nordeste 40 Nordeste 0 -- -- 57
2019-03-28 09:00:00 6.6 21 Nordeste 35 Nordeste 0 -- -- 66
2019-03-28 08:00:00 4.1 17 Nordeste 34 Nordeste 0 -- -- 71
2019-03-28 07:00:00 2.5 22 Nordeste 31 Nordeste 0 -- -- 73
2019-03-28 06:00:00 2.7 21 Nordeste 30 Este 0 -- -- 66
2019-03-28 05:00:00 3.1 16 Nordeste 31 Nordeste 0 -- -- 57
2019-03-28 04:00:00 2.6 4 Sudoeste 9 Sudeste 0 -- -- 52
2019-03-28 03:00:00 3 4 Norte 13 Oeste 0 -- -- 51
2019-03-28 02:00:00 4.2 8 Este 26 Nordeste 0 -- -- 55
2019-03-28 01:00:00 5.4 16 Nordeste 33 Nordeste 0 -- -- 48
2019-03-28 00:00:00 6.1 19 Nordeste 31 Nordeste 0 -- -- 44
2019-03-27 23:00:00 7.1 18 Este 35 Este 0 -- -- 46
2019-03-27 22:00:00 8.7 19 Nordeste 33 Nordeste 0 -- -- 43
2019-03-27 21:00:00 10.2 18 Este 35 Nordeste 0 -- -- 41
2019-03-27 20:00:00 12.4 21 Nordeste 32 Nordeste 0 -- -- 38
2019-03-27 19:00:00 16 26 Nordeste 48 Nordeste 0 -- -- 26
2019-03-27 18:00:00 18.1 32 Nordeste 53 Nordeste 0 -- -- 22
2019-03-27 17:00:00 19.3 31 Nordeste 45 Nordeste 0 -- -- 20
2019-03-27 16:00:00 19.5 29 Nordeste 56 Nordeste 0 -- -- 21
2019-03-27 15:00:00 19.1 26 Nordeste 46 Nordeste 0 -- -- 25
2019-03-27 14:00:00 18.3 33 Nordeste 45 Nordeste 0 -- -- 21
2019-03-27 13:00:00 16.7 25 Nordeste 39 Este 0 -- -- 26
2019-03-27 12:00:00 14.8 22 Nordeste 44 Este 0 -- -- 32
2019-03-27 11:00:00 12.4 23 Nordeste 42 Nordeste 0 -- -- 40
2019-03-27 10:00:00 9.8 18 Nordeste 38 Este 0 -- -- 46
2019-03-27 09:00:00 6.6 15 Nordeste 23 Nordeste 0 -- -- 58
2019-03-27 08:00:00 2 11 Noroeste 22 Norte 0 -- -- 74
2019-03-27 07:00:00 0.2 14 Norte 22 Norte 0 -- -- 80
2019-03-27 06:00:00 -0.2 9 Noroeste 15 Norte 0 -- -- 80
2019-03-27 05:00:00 0.4 12 Norte 17 Norte 0 -- -- 74
2019-03-27 04:00:00 2.1 13 Norte 28 Nordeste 0 -- -- 66
2019-03-27 03:00:00 2.7 17 Nordeste 27 Nordeste 0 -- -- 60
2019-03-27 02:00:00 3 12 Nordeste 16 Nordeste 0 -- -- 53
2019-03-27 01:00:00 4.6 11 Norte 41 Nordeste 0 -- -- 47
2019-03-27 00:00:00 5.5 30 Nordeste 55 Nordeste 0 -- -- 42
2019-03-26 23:00:00 6.3 32 Nordeste 55 Nordeste 0 -- -- 38
2019-03-26 22:00:00 7.4 28 Nordeste 40 Nordeste 0 -- -- 33
2019-03-26 21:00:00 8.9 26 Nordeste 48 Nordeste 0 -- -- 27
2019-03-26 20:00:00 10.8 30 Nordeste 49 Nordeste 0 -- -- 28
2019-03-26 19:00:00 14 33 Nordeste 57 Nordeste 0 -- -- 26
2019-03-26 18:00:00 16.6 35 Nordeste 66 Nordeste 0 -- -- 22
2019-03-26 17:00:00 17.7 37 Nordeste 55 Nordeste 0 -- -- 22
2019-03-26 16:00:00 17.7 39 Nordeste 68 Nordeste 0 -- -- 21
2019-03-26 15:00:00 17.4 44 Nordeste 64 Nordeste 0 -- -- 22
2019-03-26 14:00:00 16.1 45 Nordeste 68 Nordeste 0 -- -- 24
2019-03-26 13:00:00 14.9 42 Nordeste 63 Nordeste 0 -- -- 26
2019-03-26 12:00:00 12.9 38 Nordeste 58 Nordeste 0 -- -- 31
2019-03-26 11:00:00 10.4 39 Nordeste 67 Nordeste 0 -- -- 42
2019-03-26 10:00:00 8.1 40 Nordeste 63 Nordeste 0 -- -- 50
2019-03-26 09:00:00 6.1 36 Nordeste 53 Nordeste 0 -- -- 63
2019-03-26 08:00:00 3.8 13 Nordeste 27 Nordeste 0 -- -- 77
2019-03-26 07:00:00 1.6 10 Norte 22 Norte 0 -- -- 83
2019-03-26 06:00:00 2.8 12 Nordeste 30 Nordeste 0 -- -- 80
2019-03-26 05:00:00 3.4 13 Nordeste 28 Nordeste 0 -- -- 78
2019-03-26 04:00:00 3.7 23 Nordeste 36 Nordeste 0 -- -- 76
2019-03-26 03:00:00 3.3 21 Nordeste 39 Nordeste 0 -- -- 72
2019-03-26 02:00:00 3.6 28 Nordeste 42 Nordeste 0 -- -- 71
2019-03-26 01:00:00 3.8 27 Nordeste 39 Nordeste 0 -- -- 71
2019-03-26 00:00:00 5 31 Nordeste 50 Nordeste 0 -- -- 65
2019-03-25 23:00:00 5.3 18 Nordeste 40 Nordeste 0 -- -- 60
2019-03-25 22:00:00 7 31 Nordeste 44 Nordeste 0 -- -- 52
2019-03-25 21:00:00 8.3 27 Nordeste 46 Nordeste 0 -- -- 50
2019-03-25 20:00:00 9.9 31 Nordeste 46 Nordeste 0 -- -- 51
2019-03-25 19:00:00 12.4 33 Nordeste 55 Nordeste 0 -- -- 48
2019-03-25 18:00:00 14.9 35 Nordeste 48 Este 0 -- -- 45
2019-03-25 17:00:00 16.4 30 Nordeste 51 Este 0 -- -- 42
2019-03-25 16:00:00 16.8 29 Nordeste 50 Este 0 -- -- 41
2019-03-25 15:00:00 17 25 Nordeste 45 Este 0 -- -- 39
2019-03-25 14:00:00 16 28 Nordeste 44 Este 0 -- -- 45
2019-03-25 13:00:00 15.2 28 Nordeste 44 Nordeste 0 -- -- 46
2019-03-25 12:00:00 14 31 Este 42 Este 0 -- -- 50
2019-03-25 11:00:00 12.6 27 Nordeste 43 Nordeste 0 -- -- 59
2019-03-25 10:00:00 10 30 Nordeste 43 Nordeste 0 -- -- 70
2019-03-25 09:00:00 7.4 16 Nordeste 27 Nordeste 0 -- -- 79
2019-03-25 08:00:00 3.8 11 Nordeste 19 Norte 0 -- -- 85
2019-03-25 07:00:00 1.9 14 Norte 22 Norte 0 -- -- 84
2019-03-25 06:00:00 1.8 14 Norte 18 Norte 0 -- -- 85
2019-03-25 05:00:00 3 13 Norte 18 Norte 0 -- -- 81
2019-03-25 04:00:00 3.1 15 Norte 18 Norte 0 -- -- 85
2019-03-25 03:00:00 4.4 12 Norte 20 Nordeste 0 -- -- 82
2019-03-25 02:00:00 7.2 20 Nordeste 28 Nordeste 0 -- -- 78
2019-03-25 01:00:00 8.4 19 Nordeste 35 Nordeste 0 -- -- 77
2019-03-25 00:00:00 9.7 21 Nordeste 39 Nordeste 0 -- -- 72